Dubrovnik, Croatia

8:58 AM CEST on July 24, 2016 (GMT +0200)
Cilipi | | Change Station

Elev 541 ft 42.56 °N, 18.27 °E | Updated 28 minutes ago

Clear
Clear
82 °F
Feels Like 84 °F
N
8
Wind Variable Wind from East

Today
High -- | Low -- °F
--% Chance of Precip.
Yesterday
High -- | Low -- °F
Precip. -- in
Pressure 29.98 in
Visibility -9999.0 miles
Clouds
Heat Index 84 °F
Dew Point 64 °F
Humidity 54%
Rainfall 0.00 in
Snow Depth Not available.
5:31 AM 8:15 PM
Waning Gibbous, 79% visible
METAR LDDU 240630Z 09007KT 040V110 CAVOK 28/18 Q1015 NOSIG
Pressure 29.98 in
Visibility -9999.0 miles
Clouds
Heat Index 84 °F
Dew Point 64 °F
Humidity 54%
Rainfall 0.00 in
Snow Depth Not available.
5:31 AM 8:15 PM
Waning Gibbous, 79% visible
METAR LDDU 240630Z 09007KT 040V110 CAVOK 28/18 Q1015 NOSIG

10-Day Weather Forecast

×

Almanac

Astronomy

Jul. 24, 2016 Rise Set
Actual Time
Civil Twilight
Nautical Twilight
Astronomical Twilight
Moon
Length of Visible Light
Length of Day
Tomorrow will be .
, % of the Moon is Illuminated

Today's Extremes

Country Highs Country Lows

Community

WunderPhotos

Upload Photos

1,927,037 photos uploaded!

WunderBlog® & News

Nearby

Air Quality

  Air Quality AQ Index Pollutant
Not available.

Snow Depth

Station Depth Elevation

Earthquake Activity

City Distance Mag. Time & Date
Minimum magnitude displayed is 2.5.

Coastal Water Temperatures

Place Temperature

Stations

Nearby Weather Stations

Station Location Temp. Windchill Dew Point Humidity Wind Precip. Elev Updated Type